TimeMST,TemperatureF,Dew PointF,Humidity,Sea Level PressureIn,VisibilityMPH,Wind Direction,Wind SpeedMPH,Gust SpeedMPH,PrecipitationIn,Events,Conditions,WindDirDegrees,DateUTC
12:53 AM,36.0,28.9,76,30.27,10.0,WSW,8.1,-,N/A,,Mostly Cloudy,240,2012-11-05 07:53:00
1:53 AM,39.0,30.0,70,30.24,10.0,WSW,10.4,-,N/A,,Overcast,240,2012-11-05 08:53:00
2:53 AM,39.2,28.4,65,30.27,10.0,WSW,9.2,-,N/A,,Clear,240,2012-11-05 09:53:00
3:53 AM,41.0,28.0,60,30.20,10.0,SW,15.0,-,N/A,,Clear,230,2012-11-05 10:53:00
4:53 AM,41.0,28.4,61,30.25,10.0,WSW,11.5,-,N/A,,Clear,240,2012-11-05 11:53:00
5:53 AM,41.0,28.0,60,30.21,10.0,SW,11.5,-,N/A,,Clear,230,2012-11-05 12:53:00
6:53 AM,42.1,28.0,58,30.20,10.0,SW,12.7,-,N/A,,Clear,230,2012-11-05 13:53:00
7:53 AM,45.0,28.0,52,30.21,10.0,SSW,16.1,-,N/A,,Clear,210,2012-11-05 14:53:00
8:53 AM,46.9,28.9,50,30.22,10.0,SSW,16.1,-,N/A,,Clear,210,2012-11-05 15:53:00
9:53 AM,50.0,28.9,44,30.22,10.0,SW,19.6,-,N/A,,Clear,220,2012-11-05 16:53:00
10:53 AM,52.0,28.9,41,30.19,10.0,SW,21.9,29.9,N/A,,Clear,220,2012-11-05 17:53:00
11:53 AM,54.0,28.9,38,30.16,10.0,SSW,24.2,31.1,N/A,,Clear,210,2012-11-05 18:53:00
12:53 PM,57.9,28.9,33,30.07,10.0,SSW,23.0,28.8,N/A,,Clear,210,2012-11-05 19:53:00
1:53 PM,62.1,28.0,28,30.05,10.0,West,19.6,23.0,N/A,,Clear,270,2012-11-05 20:53:00
2:00 PM,62.6,28.4,27,30.13,10.0,West,19.6,-,N/A,,Clear,270,2012-11-05 21:00:00
2:53 PM,64.0,27.0,25,30.04,10.0,West,23.0,28.8,N/A,,Clear,280,2012-11-05 21:53:00
3:53 PM,60.1,28.0,30,30.05,10.0,West,18.4,-,N/A,,Clear,270,2012-11-05 22:53:00
4:53 PM,54.0,28.0,37,30.07,10.0,West,12.7,-,N/A,,Clear,280,2012-11-05 23:53:00
5:53 PM,48.0,28.0,46,30.12,10.0,West,10.4,-,N/A,,Clear,280,2012-11-06 00:53:00
6:53 PM,50.0,28.9,44,30.12,10.0,West,12.7,-,N/A,,Clear,270,2012-11-06 01:53:00
7:53 PM,46.0,28.9,51,30.13,10.0,SW,6.9,-,N/A,,Clear,220,2012-11-06 02:53:00
8:53 PM,48.9,28.9,46,30.12,10.0,SW,12.7,-,N/A,,Clear,230,2012-11-06 03:53:00
9:53 PM,46.9,28.0,48,30.12,10.0,WSW,8.1,-,N/A,,Clear,250,2012-11-06 04:53:00
10:53 PM,46.9,28.0,48,30.12,10.0,SSW,6.9,-,N/A,,Clear,200,2012-11-06 05:53:00
11:53 PM,46.0,28.0,50,30.13,10.0,WSW,10.4,-,N/A,,Clear,250,2012-11-06 06:53:00